Pirituba, Brazil
Current Conditions -  °F | °C
As of 6:00 AM on Monday 24 Nov 2014 (Local Time) from SBSP Reporting Station
Overcast Overcast  
Wind Chill: 66°   Ceiling: 600
Heat Index: 66°   Visibility: 5mi
Dew Point: 63°   Wind: 7mph
Humidity: 88%   Direction: 120°ESE
Pressure: 30.06"   Gusts: NA
Location:  23.63°S, 47.35°W
Report Text: SBSP 240800Z 12006KT 8000 OVC006 19/17 Q1018
Loading
Personal Weather Stations






























Interactive Weather Map New forecast layout! Learn more

10-Day Weather Forecast

Advertisements
Track Severe Weather on mobile